Time;durP1;ratioP1;P1;durP2;ratioP2;P2;SDS_P1;SDS_P2;PMS_P1;PMS_P2;Temp;Humidity;BMP_temperature;BMP_pressure;BME280_temperature;BME280_humidity;BME280_pressure;Samples;Min_cycle;Max_cycle;Signal;HPM_P1;HPM_P2
2022/12/10 00:02:00;;;;;;;;;;;;;;;11.50;64.20;97011.50;4487972;32;20325;-87
2022/12/10 00:04:25;;;;;;;;;;;;;;;11.39;63.69;97007.16;4473687;32;19980;-87
2022/12/10 00:06:50;;;;;;;;;;;;;;;11.25;63.51;97011.97;4488019;32;20024;-85
2022/12/10 00:09:16;;;;;;;;;;;;;;;11.26;63.05;97014.47;4487951;32;19964;-85
2022/12/10 00:11:41;;;;;;;;;;;;;;;11.18;62.77;97009.00;4487955;32;19999;-85
2022/12/10 00:14:07;;;;;;;;;;;;;;;11.22;62.30;97013.03;4473542;32;19980;-84
2022/12/10 00:16:33;;;;;;;;;;;;;;;11.12;62.49;97013.00;4473629;32;20348;-84
2022/12/10 00:18:58;;;;;;;;;;;;;;;10.89;62.73;97019.38;4487849;32;19969;-84
2022/12/10 00:21:24;;;;;;;;;;;;;;;10.88;62.59;97018.56;4487768;32;20339;-85
2022/12/10 00:23:50;;;;;;;;;;;;;;;10.63;62.90;97025.03;4473686;32;20508;-85
2022/12/10 00:26:19;;;;;;;;;;;;;;;10.78;62.90;97028.19;4473445;32;19972;-85
2022/12/10 00:28:44;;;;;;;;;;;;;;;10.77;63.52;97035.25;4473657;32;19988;-85
2022/12/10 00:31:14;;;;;;;;;;;;;;;10.83;64.08;97039.16;4487967;32;20006;-84
2022/12/10 00:33:40;;;;;;;;;;;;;;;10.54;67.06;97038.94;4473598;32;19987;-85
2022/12/10 00:36:06;;;;;;;;;;;;;;;10.73;67.73;97036.47;4487666;32;20233;-85
2022/12/10 00:38:32;;;;;;;;;;;;;;;10.77;68.22;97040.50;4487729;32;19972;-85
2022/12/10 00:40:57;;;;;;;;;;;;;;;10.87;68.98;97037.13;4487675;32;20221;-85
2022/12/10 00:43:22;;;;;;;;;;;;;;;10.23;73.21;97054.59;4487660;32;19968;-85
2022/12/10 00:45:47;;;;;;;;;;;;;;;10.22;74.37;97052.94;4487642;32;19990;-85
2022/12/10 00:48:13;;;;;;;;;;;;;;;10.58;72.33;97051.72;4487633;32;20244;-85
2022/12/10 00:50:38;;;;;;;;;;;;;;;10.88;70.73;97046.69;4473148;32;19987;-85
2022/12/10 00:53:03;;;;;;;;;;;;;;;10.24;73.95;97058.91;4487670;32;20106;-85
2022/12/10 00:55:28;;;;;;;;;;;;;;;9.97;75.60;97062.78;4487554;32;20013;-85
2022/12/10 00:57:53;;;;;;;;;;;;;;;9.87;75.91;97072.38;4473213;32;20006;-85
2022/12/10 01:00:19;;;;;;;;;;;;;;;9.62;76.64;97074.28;4487642;32;19982;-85
2022/12/10 01:02:44;;;;;;;;;;;;;;;9.99;75.31;97060.88;4487651;32;19972;-85
2022/12/10 01:05:09;;;;;;;;;;;;;;;9.85;76.30;97069.03;4487529;32;20392;-85
2022/12/10 01:07:34;;;;;;;;;;;;;;;10.27;73.79;97063.06;4486734;32;19964;-85
2022/12/10 01:10:00;;;;;;;;;;;;;;;9.82;75.83;97064.00;4487632;32;20000;-86
2022/12/10 01:12:25;;;;;;;;;;;;;;;10.29;73.59;97058.50;4487497;32;19971;-85
2022/12/10 01:14:50;;;;;;;;;;;;;;;9.72;75.06;97071.78;4487639;32;19989;-85
2022/12/10 01:17:16;;;;;;;;;;;;;;;10.42;72.78;97070.59;4487494;32;19982;-85
2022/12/10 01:19:41;;;;;;;;;;;;;;;10.30;72.70;97076.84;4487451;32;19971;-87
2022/12/10 01:22:06;;;;;;;;;;;;;;;10.03;74.59;97091.22;4487558;32;20275;-87
2022/12/10 01:24:31;;;;;;;;;;;;;;;10.24;73.73;97079.97;4487288;32;19995;-87
2022/12/10 01:26:57;;;;;;;;;;;;;;;10.27;72.64;97087.59;4487444;32;19964;-87
2022/12/10 01:29:22;;;;;;;;;;;;;;;10.12;74.00;97088.81;4487319;32;19976;-87
2022/12/10 01:31:50;;;;;;;;;;;;;;;9.90;74.39;97079.19;4473105;32;20316;-87
2022/12/10 01:34:15;;;;;;;;;;;;;;;10.28;73.08;97080.56;4487336;32;19996;-87
2022/12/10 01:36:42;;;;;;;;;;;;;;;10.43;72.22;97079.34;4487249;32;19979;-86
2022/12/10 01:39:09;;;;;;;;;;;;;;;10.71;70.72;97072.63;4487299;32;19987;-86
2022/12/10 01:41:38;;;;;;;;;;;;;;;10.50;71.65;97062.06;4487292;32;20027;-86
2022/12/10 01:44:23;;;;;;;;;;;;;;;10.59;71.20;97057.84;4472915;32;19976;-86
2022/12/10 01:46:50;;;;;;;;;;;;;;;10.47;71.62;97066.75;4487376;32;19964;-85
2022/12/10 01:49:19;;;;;;;;;;;;;;;10.34;71.32;97059.03;4487551;32;19990;-85
2022/12/10 01:51:45;;;;;;;;;;;;;;;10.96;69.25;97065.31;4487517;32;20035;-88
2022/12/10 01:54:12;;;;;;;;;;;;;;;11.08;68.47;97074.00;4473190;32;19990;-86
2022/12/10 01:56:38;;;;;;;;;;;;;;;11.18;67.47;97073.09;4487197;32;20414;-88
2022/12/10 01:59:03;;;;;;;;;;;;;;;11.23;67.23;97074.50;4487345;32;19980;-88
2022/12/10 02:01:37;;;;;;;;;;;;;;;11.27;66.83;97078.56;4460032;32;19994;-86
2022/12/10 02:04:22;;;;;;;;;;;;;;;11.29;66.59;97088.00;4473001;32;19976;-86
2022/12/10 02:06:50;;;;;;;;;;;;;;;11.17;66.52;97097.78;4487107;32;19967;-85
2022/12/10 02:09:18;;;;;;;;;;;;;;;10.77;67.66;97093.19;4486948;32;19979;-85
2022/12/10 02:11:45;;;;;;;;;;;;;;;11.02;66.81;97094.63;4487031;32;20289;-85
2022/12/10 02:14:29;;;;;;;;;;;;;;;10.97;66.59;97099.47;4472650;32;20442;-88
2022/12/10 02:16:58;;;;;;;;;;;;;;;10.78;67.24;97102.78;4487190;32;20272;-87
2022/12/10 02:19:33;;;;;;;;;;;;;;;10.82;67.11;97109.47;4472725;32;19983;-88
2022/12/10 02:21:58;;;;;;;;;;;;;;;10.78;67.12;97112.47;4486995;32;19979;-86
2022/12/10 02:24:25;;;;;;;;;;;;;;;9.87;70.41;97114.47;4472781;32;19978;-86
2022/12/10 02:27:12;;;;;;;;;;;;;;;9.77;70.69;97110.84;4472811;32;19964;-86
2022/12/10 02:29:37;;;;;;;;;;;;;;;9.64;71.40;97108.38;4486952;32;19991;-86
2022/12/10 02:32:09;;;;;;;;;;;;;;;10.30;68.73;97100.53;4472796;32;19972;-87
2022/12/10 02:34:41;;;;;;;;;;;;;;;9.41;71.40;97120.66;4472624;32;19967;-86
2022/12/10 02:37:08;;;;;;;;;;;;;;;9.97;69.72;97106.69;4472631;32;20036;-86
2022/12/10 02:39:34;;;;;;;;;;;;;;;9.98;69.63;97109.16;4472676;32;19995;-87
2022/12/10 02:41:59;;;;;;;;;;;;;;;10.07;69.33;97117.31;4486607;32;19980;-86
2022/12/10 02:44:25;;;;;;;;;;;;;;;10.11;69.06;97106.41;4486775;32;19967;-86
2022/12/10 02:46:50;;;;;;;;;;;;;;;10.39;68.15;97106.84;4472424;32;20000;-86
2022/12/10 02:49:16;;;;;;;;;;;;;;;9.65;71.32;97108.22;4472347;32;20016;-87
2022/12/10 02:51:41;;;;;;;;;;;;;;;9.89;70.28;97096.75;4486715;32;20269;-86
2022/12/10 02:54:26;;;;;;;;;;;;;;;10.09;69.29;97095.16;4472435;32;20296;-86
2022/12/10 02:56:53;;;;;;;;;;;;;;;10.12;69.18;97097.56;4486430;32;19960;-86
2022/12/10 02:59:28;;;;;;;;;;;;;;;10.32;68.37;97100.44;4472365;32;20475;-86
2022/12/10 03:01:59;;;;;;;;;;;;;;;10.34;68.28;97099.34;4486486;32;20670;-87
2022/12/10 03:04:24;;;;;;;;;;;;;;;9.98;69.32;97100.44;4486388;32;20010;-87
2022/12/10 03:06:51;;;;;;;;;;;;;;;9.97;68.73;97104.87;4472179;32;20283;-89
2022/12/10 03:09:23;;;;;;;;;;;;;;;9.81;68.97;97105.25;4472127;32;20032;-87
2022/12/10 03:11:50;;;;;;;;;;;;;;;9.96;68.37;97107.63;4472229;32;20006;-88
2022/12/10 03:14:26;;;;;;;;;;;;;;;10.16;67.63;97109.50;4472108;32;19991;-88
2022/12/10 03:16:53;;;;;;;;;;;;;;;9.47;69.81;97117.53;4471858;32;20027;-89
2022/12/10 03:19:18;;;;;;;;;;;;;;;9.60;68.72;97117.41;4471768;32;19995;-89
2022/12/10 03:21:44;;;;;;;;;;;;;;;9.39;69.11;97114.69;4485895;32;19987;-90
2022/12/10 03:24:09;;;;;;;;;;;;;;;9.17;69.34;97131.22;4471685;32;19975;-90
2022/12/10 03:26:35;;;;;;;;;;;;;;;9.13;70.23;97135.03;4471632;32;19982;-89
2022/12/10 03:29:04;;;;;;;;;;;;;;;8.35;72.17;97152.94;4471696;32;20027;-87
2022/12/10 03:31:30;;;;;;;;;;;;;;;8.67;71.07;97139.28;4487729;32;19976;-87
2022/12/10 03:33:55;;;;;;;;;;;;;;;8.26;71.76;97145.72;4488122;32;19986;-87
2022/12/10 03:36:20;;;;;;;;;;;;;;;7.69;74.28;97149.72;4473824;32;20352;-87
2022/12/10 03:38:45;;;;;;;;;;;;;;;7.92;73.58;97147.25;4473893;32;20274;-86
2022/12/10 03:41:11;;;;;;;;;;;;;;;8.19;72.71;97153.19;4473929;32;20258;-85
2022/12/10 03:43:37;;;;;;;;;;;;;;;7.42;74.60;97147.19;4488079;32;20006;-90
2022/12/10 03:46:02;;;;;;;;;;;;;;;8.00;72.82;97144.94;4473960;32;20402;-86
2022/12/10 03:48:27;;;;;;;;;;;;;;;8.07;72.29;97147.03;4486372;32;20012;-85
2022/12/10 03:50:52;;;;;;;;;;;;;;;7.93;72.97;97156.81;4475676;32;20243;-87
2022/12/10 03:53:18;;;;;;;;;;;;;;;7.68;73.49;97167.19;4488220;32;19976;-86
2022/12/10 03:55:43;;;;;;;;;;;;;;;7.86;72.92;97175.59;4488269;32;19972;-86
2022/12/10 03:58:08;;;;;;;;;;;;;;;8.19;71.61;97165.44;4488127;32;19988;-86
2022/12/10 04:00:33;;;;;;;;;;;;;;;7.72;73.41;97167.81;4487197;32;20023;-86
2022/12/10 04:02:59;;;;;;;;;;;;;;;7.73;73.31;97152.97;4488261;31;19972;-88
2022/12/10 04:05:24;;;;;;;;;;;;;;;7.59;73.89;97157.37;4488172;32;19992;-85
2022/12/10 04:07:49;;;;;;;;;;;;;;;7.93;72.29;97154.19;4473907;32;20027;-86
2022/12/10 04:10:14;;;;;;;;;;;;;;;7.35;74.63;97152.00;4488203;31;19972;-89
2022/12/10 04:12:40;;;;;;;;;;;;;;;7.63;74.04;97160.59;4488243;32;20003;-87
2022/12/10 04:17:49;;;;;;;;;;;;;;;7.41;75.09;97166.47;4487964;32;20002;-89
2022/12/10 04:28:26;;;;;;;;;;;;;;;8.13;71.24;97186.88;4475670;32;19998;-86
2022/12/10 04:30:51;;;;;;;;;;;;;;;7.97;71.93;97185.31;4487825;32;19976;-86
2022/12/10 04:33:17;;;;;;;;;;;;;;;8.06;71.70;97182.06;4487846;32;20011;-87
2022/12/10 04:35:42;;;;;;;;;;;;;;;8.47;69.83;97180.09;4487832;32;20326;-88
2022/12/10 04:38:07;;;;;;;;;;;;;;;8.10;71.22;97180.06;4487556;32;20297;-86
2022/12/10 04:40:32;;;;;;;;;;;;;;;8.42;70.03;97177.81;4487631;32;20349;-88
2022/12/10 04:42:58;;;;;;;;;;;;;;;7.87;71.85;97182.50;4459222;32;20340;-87
2022/12/10 04:45:23;;;;;;;;;;;;;;;7.87;71.57;97177.25;4487821;32;19998;-86
2022/12/10 04:47:48;;;;;;;;;;;;;;;7.81;71.70;97174.22;4487728;32;19980;-86
2022/12/10 04:50:13;;;;;;;;;;;;;;;7.86;71.50;97174.72;4487386;32;19988;-87
2022/12/10 04:52:39;;;;;;;;;;;;;;;8.10;70.65;97187.09;4473429;32;19968;-86
2022/12/10 04:55:04;;;;;;;;;;;;;;;8.00;71.06;97179.03;4487624;32;20009;-86
2022/12/10 04:57:29;;;;;;;;;;;;;;;7.54;72.86;97180.41;4487642;32;20338;-86
2022/12/10 04:59:54;;;;;;;;;;;;;;;7.66;73.03;97166.47;4487679;32;20247;-87
2022/12/10 05:02:20;;;;;;;;;;;;;;;8.27;70.97;97171.84;4487560;32;20015;-87
2022/12/10 05:04:45;;;;;;;;;;;;;;;8.06;70.90;97170.75;4487747;32;19976;-90
2022/12/10 05:07:10;;;;;;;;;;;;;;;8.16;71.02;97161.25;4473300;32;20316;-88
2022/12/10 05:09:37;;;;;;;;;;;;;;;8.08;71.21;97164.44;4487603;32;19986;-91
2022/12/10 05:12:02;;;;;;;;;;;;;;;7.96;71.70;97177.56;4487682;32;19980;-86
2022/12/10 05:14:27;;;;;;;;;;;;;;;7.79;72.63;97178.75;4473245;32;19968;-86
2022/12/10 05:16:52;;;;;;;;;;;;;;;7.60;73.08;97180.00;4487435;32;19968;-87
2022/12/10 05:19:19;;;;;;;;;;;;;;;7.49;72.90;97185.12;4487607;32;20017;-87
2022/12/10 05:24:28;;;;;;;;;;;;;;;7.01;75.17;97190.06;4487614;32;19981;-89
2022/12/10 05:26:53;;;;;;;;;;;;;;;7.14;75.22;97188.31;4487416;32;19976;-89
2022/12/10 05:29:19;;;;;;;;;;;;;;;6.98;75.35;97198.16;4487436;32;20221;-89
2022/12/10 05:31:44;;;;;;;;;;;;;;;7.12;75.13;97208.53;4486216;32;19963;-87
2022/12/10 05:34:10;;;;;;;;;;;;;;;7.23;74.63;97207.84;4486275;32;19994;-86
2022/12/10 05:36:35;;;;;;;;;;;;;;;7.42;73.82;97212.69;4487287;31;19975;-87
2022/12/10 05:39:00;;;;;;;;;;;;;;;7.26;74.33;97211.09;4487345;32;20009;-86
2022/12/10 05:41:26;;;;;;;;;;;;;;;7.84;71.54;97211.56;4487342;32;19967;-86
2022/12/10 05:43:53;;;;;;;;;;;;;;;7.53;72.12;97217.19;4487290;31;19972;-86
2022/12/10 05:46:20;;;;;;;;;;;;;;;8.14;70.04;97220.03;4487144;31;20377;-86
2022/12/10 05:48:45;;;;;;;;;;;;;;;8.06;69.99;97218.78;4487400;31;19960;-86
2022/12/10 05:51:12;;;;;;;;;;;;;;;7.98;70.29;97215.03;4485997;32;20339;-86
2022/12/10 05:53:37;;;;;;;;;;;;;;;7.92;70.04;97223.28;4485654;32;20319;-86
2022/12/10 05:56:04;;;;;;;;;;;;;;;8.03;69.83;97221.59;4487108;31;19967;-85
2022/12/10 05:58:29;;;;;;;;;;;;;;;8.11;69.62;97225.47;4486014;32;20007;-86
2022/12/10 06:00:55;;;;;;;;;;;;;;;8.20;69.01;97220.44;4487195;32;19990;-86
2022/12/10 06:03:20;;;;;;;;;;;;;;;8.49;67.81;97214.94;4487040;31;19976;-87
2022/12/10 06:05:45;;;;;;;;;;;;;;;8.24;68.48;97219.25;4478788;32;20307;-87
2022/12/10 06:08:10;;;;;;;;;;;;;;;8.50;67.88;97214.00;4485813;32;20002;-87
2022/12/10 06:10:36;;;;;;;;;;;;;;;8.64;67.49;97221.72;4486798;32;19995;-86
2022/12/10 06:13:02;;;;;;;;;;;;;;;8.52;67.96;97232.25;4486991;31;20013;-86
2022/12/10 06:15:27;;;;;;;;;;;;;;;8.34;68.24;97221.25;4485921;32;19980;-86
2022/12/10 06:17:53;;;;;;;;;;;;;;;7.85;69.36;97233.38;4486798;32;20043;-85
2022/12/10 06:20:19;;;;;;;;;;;;;;;8.02;69.23;97233.06;4486920;31;19971;-85
2022/12/10 06:22:44;;;;;;;;;;;;;;;7.52;70.60;97234.72;4486726;32;19968;-85
2022/12/10 06:25:09;;;;;;;;;;;;;;;7.51;71.12;97243.50;4486797;32;19964;-85
2022/12/10 06:27:34;;;;;;;;;;;;;;;7.50;70.97;97247.06;4485727;32;19987;-88
2022/12/10 06:29:59;;;;;;;;;;;;;;;8.04;68.73;97246.06;4486705;32;20051;-87
2022/12/10 06:32:25;;;;;;;;;;;;;;;7.55;70.10;97244.13;4486568;32;20016;-86
2022/12/10 06:34:50;;;;;;;;;;;;;;;7.80;69.10;97249.44;4486794;31;20374;-87
2022/12/10 06:37:15;;;;;;;;;;;;;;;7.51;70.00;97258.41;4485390;32;20016;-90
2022/12/10 06:39:41;;;;;;;;;;;;;;;7.61;70.02;97244.59;4486504;32;19980;-88
2022/12/10 06:42:06;;;;;;;;;;;;;;;7.64;69.57;97248.78;4485126;32;20341;-87
2022/12/10 06:44:31;;;;;;;;;;;;;;;7.64;69.62;97251.38;4486680;31;19971;-86
2022/12/10 06:46:57;;;;;;;;;;;;;;;7.70;69.49;97245.72;4485564;32;19983;-90
2022/12/10 06:49:22;;;;;;;;;;;;;;;7.28;71.26;97253.75;4486435;32;19972;-90
2022/12/10 06:51:47;;;;;;;;;;;;;;;7.58;70.16;97252.62;4485815;32;20308;-90
2022/12/10 06:54:13;;;;;;;;;;;;;;;7.33;70.48;97260.47;4486416;31;19980;-90
2022/12/10 06:56:38;;;;;;;;;;;;;;;7.63;69.39;97263.66;4486312;32;19980;-92
2022/12/10 06:59:04;;;;;;;;;;;;;;;6.94;70.98;97262.94;4486431;32;20286;-89
2022/12/10 07:01:29;;;;;;;;;;;;;;;7.02;70.75;97265.91;4485179;32;19968;-91
2022/12/10 07:03:55;;;;;;;;;;;;;;;7.25;69.44;97263.59;4486226;32;19968;-90
2022/12/10 07:06:21;;;;;;;;;;;;;;;7.47;68.71;97258.63;4487747;32;19984;-89
2022/12/10 07:08:46;;;;;;;;;;;;;;;7.41;68.33;97260.78;4474197;32;20025;-89
2022/12/10 07:11:12;;;;;;;;;;;;;;;7.53;68.30;97254.72;4488319;32;19988;-89
2022/12/10 07:13:37;;;;;;;;;;;;;;;7.97;66.89;97253.50;4488269;32;20040;-88
2022/12/10 07:16:03;;;;;;;;;;;;;;;7.74;67.57;97255.06;4487197;32;19988;-89
2022/12/10 07:18:28;;;;;;;;;;;;;;;7.37;68.36;97254.06;4488487;31;19971;-90
2022/12/10 07:20:54;;;;;;;;;;;;;;;7.96;66.33;97246.59;4488277;31;20012;-84
2022/12/10 07:23:19;;;;;;;;;;;;;;;8.11;66.06;97246.47;4487251;32;20028;-84
2022/12/10 07:25:45;;;;;;;;;;;;;;;7.82;66.56;97249.28;4486596;32;19975;-84
2022/12/10 07:28:10;;;;;;;;;;;;;;;8.05;65.87;97248.59;4473626;32;20198;-84
2022/12/10 07:30:35;;;;;;;;;;;;;;;8.34;65.14;97244.84;4488384;32;20010;-87
2022/12/10 07:33:00;;;;;;;;;;;;;;;8.42;64.84;97243.41;4487108;32;20011;-87
2022/12/10 07:35:25;;;;;;;;;;;;;;;8.39;65.11;97235.72;4488212;32;19976;-86
2022/12/10 07:37:51;;;;;;;;;;;;;;;8.20;65.12;97223.06;4488217;32;19968;-86
2022/12/10 07:40:16;;;;;;;;;;;;;;;8.14;65.38;97220.03;4488042;32;19974;-87
2022/12/10 07:42:41;;;;;;;;;;;;;;;8.42;64.71;97217.19;4487962;32;20267;-86
2022/12/10 07:45:07;;;;;;;;;;;;;;;8.41;64.35;97225.97;4488023;32;19981;-84
2022/12/10 07:47:34;;;;;;;;;;;;;;;8.14;65.02;97228.72;4486968;32;19990;-85
2022/12/10 07:49:59;;;;;;;;;;;;;;;8.37;64.11;97235.00;4488152;31;20038;-85
2022/12/10 07:52:25;;;;;;;;;;;;;;;7.96;65.33;97250.97;4487931;32;19995;-85
2022/12/10 07:54:50;;;;;;;;;;;;;;;7.42;66.30;97255.44;4487848;32;20038;-87
2022/12/10 07:57:15;;;;;;;;;;;;;;;7.10;67.35;97270.66;4488038;32;19996;-85
2022/12/10 07:59:40;;;;;;;;;;;;;;;7.96;65.10;97269.31;4488024;31;20227;-86
2022/12/10 08:02:07;;;;;;;;;;;;;;;8.05;64.84;97272.19;4488009;32;19979;-86
2022/12/10 08:04:32;;;;;;;;;;;;;;;8.36;63.77;97274.44;4488117;31;19980;-84
2022/12/10 08:06:58;;;;;;;;;;;;;;;7.92;65.37;97263.47;4487929;32;19968;-82
2022/12/10 08:09:23;;;;;;;;;;;;;;;8.15;64.52;97248.78;4485487;31;20005;-81
2022/12/10 08:11:48;;;;;;;;;;;;;;;8.42;64.01;97243.41;4473576;32;19980;-84
2022/12/10 08:14:13;;;;;;;;;;;;;;;7.97;65.48;97250.03;4473688;32;20025;-83
2022/12/10 08:16:39;;;;;;;;;;;;;;;7.59;66.38;97251.72;4487645;32;20291;-85
2022/12/10 08:19:04;;;;;;;;;;;;;;;8.30;64.27;97252.09;4487801;32;19963;-84
2022/12/10 08:21:30;;;;;;;;;;;;;;;8.28;63.79;97251.38;4473589;32;20024;-85
2022/12/10 08:23:55;;;;;;;;;;;;;;;8.69;62.54;97245.00;4487822;32;19976;-85
2022/12/10 08:26:21;;;;;;;;;;;;;;;8.84;62.31;97249.16;4487827;32;19990;-88
2022/12/10 08:28:47;;;;;;;;;;;;;;;8.70;62.42;97251.94;4487870;32;19975;-88
2022/12/10 08:31:13;;;;;;;;;;;;;;;8.39;63.38;97246.22;4485547;32;19972;-89
2022/12/10 08:33:39;;;;;;;;;;;;;;;8.62;62.66;97233.28;4464110;32;20002;-88
2022/12/10 08:36:05;;;;;;;;;;;;;;;9.03;62.11;97232.91;4457274;32;20027;-85
2022/12/10 08:38:30;;;;;;;;;;;;;;;9.10;61.35;97235.94;4471361;32;19999;-91
2022/12/10 08:40:56;;;;;;;;;;;;;;;9.11;61.86;97242.00;4484506;32;20259;-84
2022/12/10 08:43:21;;;;;;;;;;;;;;;9.11;61.76;97242.00;4461448;32;20327;-82
2022/12/10 08:45:46;;;;;;;;;;;;;;;9.18;61.20;97238.00;4487062;32;20331;-83
2022/12/10 08:48:11;;;;;;;;;;;;;;;8.30;62.93;97244.22;4476954;32;19994;-80
2022/12/10 08:50:37;;;;;;;;;;;;;;;8.62;62.99;97252.50;4466897;32;19996;-80
2022/12/10 08:53:02;;;;;;;;;;;;;;;8.39;63.76;97258.50;4474003;32;19980;-81
2022/12/10 08:55:28;;;;;;;;;;;;;;;8.61;62.68;97257.84;4467148;32;20017;-79
2022/12/10 08:57:53;;;;;;;;;;;;;;;8.06;64.19;97255.50;4479384;32;19963;-80
2022/12/10 09:00:18;;;;;;;;;;;;;;;8.29;64.10;97271.44;4475761;31;20012;-81
2022/12/10 09:02:44;;;;;;;;;;;;;;;8.52;63.35;97269.84;4484844;32;19992;-80
2022/12/10 09:05:09;;;;;;;;;;;;;;;8.73;62.53;97270.13;4469007;32;20252;-80
2022/12/10 09:07:34;;;;;;;;;;;;;;;8.18;63.71;97277.41;4477543;32;19971;-81
2022/12/10 09:09:59;;;;;;;;;;;;;;;8.48;63.03;97271.03;4477650;32;20002;-81
2022/12/10 09:12:25;;;;;;;;;;;;;;;8.65;62.98;97260.16;4482955;32;19979;-81
2022/12/10 09:14:51;;;;;;;;;;;;;;;8.59;63.42;97272.87;4469603;32;20316;-81
2022/12/10 09:17:16;;;;;;;;;;;;;;;8.57;63.52;97272.13;4461281;32;19982;-81
2022/12/10 09:19:41;;;;;;;;;;;;;;;8.82;62.99;97269.44;4480153;32;20241;-81
2022/12/10 09:22:06;;;;;;;;;;;;;;;9.22;61.64;97274.44;4480892;32;19978;-81
2022/12/10 09:24:32;;;;;;;;;;;;;;;9.05;61.47;97270.41;4474869;32;20036;-80
2022/12/10 09:26:57;;;;;;;;;;;;;;;9.04;61.33;97262.66;4478908;32;20256;-81
2022/12/10 09:29:22;;;;;;;;;;;;;;;8.14;63.59;97262.84;4467362;32;20016;-81
2022/12/10 09:31:51;;;;;;;;;;;;;;;8.47;63.46;97253.56;4464131;32;19990;-81
2022/12/10 09:34:16;;;;;;;;;;;;;;;8.33;63.64;97261.56;4476559;32;19989;-81
2022/12/10 09:36:41;;;;;;;;;;;;;;;8.99;62.28;97262.97;4469484;32;19968;-81
2022/12/10 09:39:07;;;;;;;;;;;;;;;8.99;62.29;97270.03;4474530;32;19983;-81
2022/12/10 09:41:32;;;;;;;;;;;;;;;9.36;61.41;97262.06;4480614;32;20020;-82
2022/12/10 09:44:02;;;;;;;;;;;;;;;9.51;60.14;97253.03;4479443;32;20431;-80
2022/12/10 09:46:48;;;;;;;;;;;;;;;9.54;60.07;97239.69;4486301;31;19972;-81
2022/12/10 09:49:20;;;;;;;;;;;;;;;9.36;60.62;97227.91;4458180;32;20007;-81
2022/12/10 09:51:45;;;;;;;;;;;;;;;9.52;60.40;97227.59;4477586;32;20673;-83
2022/12/10 09:54:29;;;;;;;;;;;;;;;8.93;61.45;97225.81;4462533;32;20012;-81
2022/12/10 09:56:55;;;;;;;;;;;;;;;8.91;62.03;97217.22;4483416;32;19971;-95
2022/12/10 09:59:21;;;;;;;;;;;;;;;9.57;60.28;97193.91;4461999;32;20255;-95
2022/12/10 10:01:51;;;;;;;;;;;;;;;9.59;60.17;97189.37;4469771;32;19976;-90
2022/12/10 10:04:16;;;;;;;;;;;;;;;8.74;62.53;97198.25;4462352;32;20113;-91
2022/12/10 10:09:06;;;;;;;;;;;;;;;8.46;63.04;97213.38;4471581;26;36048;-84
2022/12/10 10:11:33;;;;;;;;;;;;;;;8.40;63.59;97210.31;4457230;32;20035;-82
2022/12/10 10:14:00;;;;;;;;;;;;;;;8.15;64.29;97205.97;4456679;32;19998;-82
2022/12/10 10:16:27;;;;;;;;;;;;;;;8.68;62.89;97205.75;4443735;32;20306;-82
2022/12/10 10:18:55;;;;;;;;;;;;;;;8.56;62.87;97200.44;4457259;32;20448;-82
2022/12/10 10:21:21;;;;;;;;;;;;;;;8.57;63.01;97199.47;4471243;32;20003;-82
2022/12/10 10:23:47;;;;;;;;;;;;;;;8.73;62.37;97195.75;4444079;32;19990;-82
2022/12/10 10:26:12;;;;;;;;;;;;;;;9.03;61.73;97206.63;4456976;32;19976;-82
2022/12/10 10:28:38;;;;;;;;;;;;;;;9.18;61.23;97203.84;4471200;32;19968;-82
2022/12/10 10:31:07;;;;;;;;;;;;;;;9.35;60.75;97202.56;4457026;32;20023;-82
2022/12/10 10:33:32;;;;;;;;;;;;;;;9.20;61.38;97202.78;4456790;32;19968;-82
2022/12/10 10:35:59;;;;;;;;;;;;;;;9.04;61.41;97210.13;4456878;32;19991;-82
2022/12/10 10:38:27;;;;;;;;;;;;;;;9.17;61.26;97202.16;4457130;32;20030;-82
2022/12/10 10:40:54;;;;;;;;;;;;;;;9.48;60.41;97202.47;4473035;32;20055;-82
2022/12/10 10:43:20;;;;;;;;;;;;;;;9.40;60.43;97197.81;4473155;32;19976;-82
2022/12/10 10:45:51;;;;;;;;;;;;;;;9.20;60.96;97207.19;4459039;32;20013;-82
2022/12/10 10:48:17;;;;;;;;;;;;;;;9.13;60.73;97206.78;4459079;32;20003;-82
2022/12/10 10:50:43;;;;;;;;;;;;;;;9.51;59.83;97207.53;4459041;32;20371;-82
2022/12/10 10:53:29;;;;;;;;;;;;;;;9.19;60.50;97211.63;4473132;32;19986;-82
2022/12/10 10:55:56;;;;;;;;;;;;;;;9.03;60.85;97216.31;4459079;32;20358;-82
2022/12/10 10:58:22;;;;;;;;;;;;;;;9.39;59.77;97211.91;4458935;32;20408;-82
2022/12/10 11:00:54;;;;;;;;;;;;;;;9.06;60.76;97213.47;4472936;32;19988;-82
2022/12/10 11:03:19;;;;;;;;;;;;;;;9.20;60.51;97215.06;4459007;32;20303;-82
2022/12/10 11:05:46;;;;;;;;;;;;;;;9.30;60.16;97205.53;4458954;32;20038;-82
2022/12/10 11:08:18;;;;;;;;;;;;;;;9.49;59.49;97201.53;4472803;32;19986;-82
2022/12/10 11:10:50;;;;;;;;;;;;;;;8.52;61.93;97208.62;4445816;32;20028;-82
2022/12/10 11:13:35;;;;;;;;;;;;;;;8.68;61.56;97201.34;4458833;32;20343;-82
2022/12/10 11:16:18;;;;;;;;;;;;;;;8.66;61.38;97195.38;4458972;32;19972;-82
2022/12/10 11:19:04;;;;;;;;;;;;;;;8.81;60.74;97194.25;4458779;32;19984;-82
2022/12/10 11:21:33;;;;;;;;;;;;;;;8.29;62.80;97195.34;4472330;32;20002;-82
2022/12/10 11:23:59;;;;;;;;;;;;;;;8.31;62.11;97190.00;4458518;32;20003;-82
2022/12/10 11:26:24;;;;;;;;;;;;;;;7.97;63.65;97184.47;4458275;32;19983;-82
2022/12/10 11:28:58;;;;;;;;;;;;;;;7.54;64.96;97188.28;4472555;32;20026;-82
2022/12/10 11:31:42;;;;;;;;;;;;;;;7.32;66.40;97174.94;4472500;32;20002;-82
2022/12/10 11:34:17;;;;;;;;;;;;;;;8.08;64.37;97176.72;4472792;32;19973;-82
2022/12/10 11:36:46;;;;;;;;;;;;;;;8.11;64.06;97170.41;4458432;32;20260;-82
2022/12/10 11:39:20;;;;;;;;;;;;;;;8.19;63.74;97155.81;4458488;32;19996;-82
2022/12/10 11:41:58;;;;;;;;;;;;;;;8.06;64.21;97158.44;4458275;32;20534;-82
2022/12/10 11:44:36;;;;;;;;;;;;;;;7.79;65.54;97145.50;4472460;32;20017;-82
2022/12/10 11:47:05;;;;;;;;;;;;;;;7.82;65.45;97147.91;4458282;32;19976;-82
2022/12/10 11:49:48;;;;;;;;;;;;;;;7.88;65.49;97150.09;4472467;32;19995;-82
2022/12/10 11:52:26;;;;;;;;;;;;;;;7.96;65.07;97138.22;4472043;32;20000;-82
2022/12/10 11:55:09;;;;;;;;;;;;;;;7.83;65.98;97128.59;4472334;32;19977;-82
2022/12/10 11:57:35;;;;;;;;;;;;;;;7.83;66.15;97130.41;4472294;32;19972;-82
2022/12/10 12:00:12;;;;;;;;;;;;;;;8.28;64.42;97110.53;4458351;32;20032;-82
2022/12/10 12:02:43;;;;;;;;;;;;;;;7.98;65.27;97123.25;4472482;32;20023;-82
2022/12/10 12:05:27;;;;;;;;;;;;;;;8.18;64.80;97109.53;4472379;32;20450;-82
2022/12/10 12:08:12;;;;;;;;;;;;;;;8.19;64.88;97110.34;4472162;32;20019;-82
2022/12/10 12:10:40;;;;;;;;;;;;;;;8.01;65.22;97121.22;4458353;32;19988;-82
2022/12/10 12:13:05;;;;;;;;;;;;;;;7.86;65.06;97122.28;4472312;32;19988;-82
2022/12/10 12:15:41;;;;;;;;;;;;;;;7.87;65.75;97119.56;4472289;32;19976;-82
2022/12/10 12:18:18;;;;;;;;;;;;;;;7.95;65.12;97111.16;4458066;32;19968;-82
2022/12/10 12:20:45;;;;;;;;;;;;;;;8.15;64.71;97115.00;4458133;32;19987;-82
2022/12/10 12:23:13;;;;;;;;;;;;;;;7.93;65.65;97113.06;4472157;32;19988;-82
2022/12/10 12:25:39;;;;;;;;;;;;;;;8.14;64.61;97115.94;4458065;32;19990;-82
2022/12/10 12:28:06;;;;;;;;;;;;;;;8.22;64.00;97094.41;4472174;32;20320;-82
2022/12/10 12:30:32;;;;;;;;;;;;;;;8.14;64.31;97097.59;4457916;32;19989;-82
2022/12/10 12:33:10;;;;;;;;;;;;;;;8.09;64.34;97107.56;4472140;32;19979;-82
2022/12/10 12:35:56;;;;;;;;;;;;;;;8.03;64.86;97098.34;4457878;32;20323;-82
2022/12/10 12:38:26;;;;;;;;;;;;;;;8.20;63.61;97097.13;4456765;32;19968;-86
2022/12/10 12:40:52;;;;;;;;;;;;;;;8.11;63.97;97094.34;4449665;32;20380;-86
2022/12/10 12:43:23;;;;;;;;;;;;;;;7.62;64.82;97094.25;4457433;32;20029;-86
2022/12/10 12:45:49;;;;;;;;;;;;;;;7.59;65.16;97104.97;4445624;32;19976;-86
2022/12/10 12:48:33;;;;;;;;;;;;;;;7.40;66.01;97101.94;4452554;32;20350;-85
2022/12/10 12:51:00;;;;;;;;;;;;;;;7.47;65.80;97105.78;4449974;32;19988;-86
2022/12/10 12:53:26;;;;;;;;;;;;;;;7.64;64.86;97105.47;4445017;32;20010;-85
2022/12/10 12:56:10;;;;;;;;;;;;;;;7.68;65.18;97116.56;4453956;32;19977;-85
2022/12/10 12:58:41;;;;;;;;;;;;;;;7.33;65.88;97111.97;4448792;32;19968;-85
2022/12/10 13:01:13;;;;;;;;;;;;;;;7.46;65.68;97107.56;4470985;32;20028;-85
2022/12/10 13:03:42;;;;;;;;;;;;;;;7.26;66.54;97119.44;4443327;32;20009;-83
2022/12/10 13:06:24;;;;;;;;;;;;;;;7.54;65.79;97108.84;4452547;32;20073;-85
2022/12/10 13:08:52;;;;;;;;;;;;;;;6.98;67.33;97124.84;4464398;32;19964;-85
2022/12/10 13:11:19;;;;;;;;;;;;;;;6.76;68.25;97126.28;4444986;32;20029;-84
2022/12/10 13:14:02;;;;;;;;;;;;;;;7.16;67.16;97133.25;4440453;32;19996;-82